createdAt,value
2022-08-24T00:01:37.059Z,10.52
2022-08-24T00:04:00.788Z,6.32
2022-08-24T00:06:25.939Z,5.57
2022-08-24T00:08:52.498Z,7.20
2022-08-24T00:11:16.487Z,7.65
2022-08-24T00:13:40.807Z,6.75
2022-08-24T00:16:06.441Z,8.75
2022-08-24T00:18:30.368Z,8.68
2022-08-24T00:20:54.399Z,9.13
2022-08-24T00:23:18.471Z,13.25
2022-08-24T00:25:42.576Z,8.93
2022-08-24T00:28:06.831Z,9.02
2022-08-24T00:30:30.955Z,8.07
2022-08-24T00:32:56.488Z,8.10
2022-08-24T00:35:20.962Z,8.43
2022-08-24T00:37:44.641Z,9.40
2022-08-24T00:40:12.960Z,10.60
2022-08-24T00:42:36.827Z,10.43
2022-08-24T00:45:01.093Z,7.53
2022-08-24T00:47:29.043Z,6.63
2022-08-24T00:49:59.642Z,11.63
2022-08-24T00:52:27.983Z,7.72
2022-08-24T00:55:02.297Z,11.85
2022-08-24T00:57:34.655Z,10.05
2022-08-24T01:00:06.321Z,9.43
2022-08-24T01:02:34.628Z,8.32
2022-08-24T01:05:02.717Z,6.10
2022-08-24T01:07:29.434Z,10.18
2022-08-24T01:09:55.239Z,10.10
2022-08-24T01:12:19.186Z,9.82
2022-08-24T01:14:42.839Z,9.23
2022-08-24T01:17:24.908Z,11.88
2022-08-24T01:19:53.526Z,12.57
2022-08-24T01:22:43.579Z,9.57
2022-08-24T01:25:10.217Z,6.50
2022-08-24T01:27:35.660Z,8.52
2022-08-24T01:30:03.547Z,8.00
2022-08-24T01:32:29.026Z,7.05
2022-08-24T01:34:52.694Z,7.90
2022-08-24T01:37:16.599Z,12.20
2022-08-24T01:39:44.592Z,12.02
2022-08-24T01:42:10.879Z,8.93
2022-08-24T01:44:37.022Z,7.50
2022-08-24T01:47:01.642Z,8.57
2022-08-24T01:49:35.498Z,9.57
2022-08-24T01:51:59.679Z,11.45
2022-08-24T01:54:23.605Z,12.75
2022-08-24T01:56:47.817Z,9.32
2022-08-24T01:59:13.997Z,9.75
2022-08-24T02:01:46.775Z,6.95
2022-08-24T02:04:11.319Z,10.68
2022-08-24T02:06:44.622Z,11.32
2022-08-24T02:09:10.743Z,8.45
2022-08-24T02:11:35.840Z,9.05
2022-08-24T02:13:59.522Z,10.05
2022-08-24T02:16:27.610Z,6.93
2022-08-24T02:18:51.350Z,11.00
2022-08-24T02:21:16.885Z,9.85
2022-08-24T02:23:42.612Z,14.32
2022-08-24T02:26:08.591Z,9.27
2022-08-24T02:28:32.619Z,10.02
2022-08-24T02:30:56.766Z,11.35
2022-08-24T02:33:23.663Z,9.48
2022-08-24T02:35:48.303Z,8.70
2022-08-24T02:38:12.147Z,7.50
2022-08-24T02:40:36.162Z,11.10
2022-08-24T02:43:00.430Z,9.35
2022-08-24T02:45:24.192Z,11.30
2022-08-24T02:47:48.155Z,8.75
2022-08-24T02:50:18.291Z,11.15
2022-08-24T02:52:44.141Z,9.85
2022-08-24T02:55:11.173Z,10.48
2022-08-24T02:57:35.216Z,14.50
2022-08-24T03:00:05.928Z,11.88
2022-08-24T03:02:32.656Z,6.50
2022-08-24T03:04:56.387Z,8.13
2022-08-24T03:07:21.579Z,10.23
2022-08-24T03:09:45.544Z,8.48
2022-08-24T03:12:09.874Z,10.77
2022-08-24T03:14:35.375Z,11.23
2022-08-24T03:16:59.055Z,10.65
2022-08-24T03:19:23.855Z,13.77
2022-08-24T03:21:48.229Z,12.57
2022-08-24T03:24:13.682Z,7.07
2022-08-24T03:26:39.052Z,13.88
2022-08-24T03:29:09.093Z,8.07
2022-08-24T03:31:33.510Z,9.13
2022-08-24T03:33:57.436Z,11.30
2022-08-24T03:36:21.271Z,7.03
2022-08-24T03:38:45.019Z,7.25
2022-08-24T03:41:10.619Z,13.40
2022-08-24T03:43:49.766Z,11.15
2022-08-24T03:46:20.498Z,12.95
2022-08-24T03:48:44.983Z,10.82
2022-08-24T03:51:09.234Z,10.18
2022-08-24T03:53:33.206Z,22.58
2022-08-24T03:56:00.925Z,26.85
2022-08-24T03:58:31.363Z,22.88
2022-08-24T04:00:55.563Z,48.13
2022-08-24T04:03:19.772Z,13.10
2022-08-24T04:05:43.952Z,18.17
2022-08-24T04:08:08.435Z,11.18
2022-08-24T04:10:35.851Z,12.40
2022-08-24T04:13:01.589Z,11.52
2022-08-24T04:15:27.635Z,17.48
2022-08-24T04:17:52.687Z,11.63
2022-08-24T04:20:16.538Z,10.18
2022-08-24T04:22:40.324Z,10.15
2022-08-24T04:25:09.460Z,8.02
2022-08-24T04:27:35.116Z,8.75
2022-08-24T04:29:58.794Z,7.97
2022-08-24T04:32:26.119Z,8.23
2022-08-24T04:34:51.678Z,12.93
2022-08-24T04:37:15.955Z,12.02
2022-08-24T04:39:40.161Z,9.90
2022-08-24T04:42:26.987Z,15.80
2022-08-24T04:44:52.165Z,16.60
2022-08-24T04:47:18.951Z,21.23
2022-08-24T04:49:44.169Z,13.57
2022-08-24T04:52:08.264Z,29.73
2022-08-24T04:54:32.259Z,22.17
2022-08-24T04:57:06.443Z,22.05
2022-08-24T04:59:30.822Z,18.40
2022-08-24T05:01:54.653Z,23.48
2022-08-24T05:04:18.409Z,26.95
2022-08-24T05:06:43.773Z,20.63
2022-08-24T05:09:07.923Z,24.33
2022-08-24T05:11:31.780Z,19.85
2022-08-24T05:13:56.652Z,26.38
2022-08-24T05:16:21.679Z,15.95
2022-08-24T05:18:47.268Z,16.65
2022-08-24T05:21:15.963Z,21.92
2022-08-24T05:23:43.994Z,29.52
2022-08-24T05:26:13.279Z,30.33
2022-08-24T05:28:37.084Z,14.82
2022-08-24T05:31:09.295Z,15.95
2022-08-24T05:33:34.643Z,15.52
2022-08-24T05:35:58.448Z,16.05
2022-08-24T05:38:22.824Z,14.43
2022-08-24T05:40:47.891Z,15.98
2022-08-24T05:43:12.327Z,14.07
2022-08-24T05:45:35.946Z,10.85
2022-08-24T05:47:59.708Z,10.95
2022-08-24T05:50:57.198Z,16.52
2022-08-24T05:53:24.060Z,12.30
2022-08-24T05:55:49.341Z,15.75
2022-08-24T05:58:23.063Z,22.50
2022-08-24T06:00:59.295Z,16.38
2022-08-24T06:03:22.983Z,10.30
2022-08-24T06:05:49.289Z,16.45
2022-08-24T06:08:12.955Z,21.35
2022-08-24T06:10:43.060Z,16.15
2022-08-24T06:13:08.643Z,15.73
2022-08-24T06:15:33.038Z,16.48
2022-08-24T06:17:56.803Z,17.77
2022-08-24T06:20:20.726Z,16.02
2022-08-24T06:22:45.452Z,15.63
2022-08-24T06:25:27.647Z,20.17
2022-08-24T06:27:51.367Z,18.38
2022-08-24T06:30:16.965Z,16.67
2022-08-24T06:32:43.984Z,16.33
2022-08-24T06:35:14.368Z,16.85
2022-08-24T06:37:38.103Z,21.40
2022-08-24T06:40:03.205Z,17.27
2022-08-24T06:42:30.443Z,19.83
2022-08-24T06:44:56.710Z,21.65
2022-08-24T06:47:23.671Z,20.92
2022-08-24T06:49:52.964Z,20.15
2022-08-24T06:52:16.727Z,19.67
2022-08-24T06:54:40.523Z,19.88
2022-08-24T06:57:04.734Z,24.13
2022-08-24T06:59:29.180Z,28.58
2022-08-24T07:01:53.636Z,30.27
2022-08-24T07:04:19.059Z,28.77
2022-08-24T07:06:45.491Z,26.13
2022-08-24T07:09:10.835Z,29.55
2022-08-24T07:11:35.186Z,30.80
2022-08-24T07:13:59.130Z,27.75
2022-08-24T07:16:24.336Z,31.15
2022-08-24T07:18:53.143Z,38.65
2022-08-24T07:21:20.368Z,29.45
2022-08-24T07:23:44.821Z,25.20
2022-08-24T07:26:21.690Z,28.10
2022-08-24T07:28:48.328Z,29.20
2022-08-24T07:31:13.857Z,28.48
2022-08-24T07:33:45.400Z,24.90
2022-08-24T07:36:09.519Z,26.48
2022-08-24T07:38:34.894Z,24.98
2022-08-24T07:41:38.153Z,24.45
2022-08-24T07:43:44.185Z,24.35
2022-08-24T07:46:08.222Z,26.02
2022-08-24T07:48:33.708Z,25.15
2022-08-24T07:50:59.683Z,26.45
2022-08-24T07:53:27.945Z,28.27
2022-08-24T07:55:58.567Z,23.98
2022-08-24T07:58:22.463Z,26.30
2022-08-24T08:00:48.759Z,20.23
2022-08-24T08:03:12.423Z,24.40
2022-08-24T08:05:41.515Z,25.42
2022-08-24T08:08:05.758Z,24.92
2022-08-24T08:10:31.194Z,25.50
2022-08-24T08:12:56.476Z,22.52
2022-08-24T08:15:20.443Z,20.80
2022-08-24T08:17:54.083Z,20.20
2022-08-24T08:20:20.234Z,20.73
2022-08-24T08:23:01.166Z,20.63
2022-08-24T08:25:27.649Z,23.10
2022-08-24T08:27:51.436Z,23.42
2022-08-24T08:30:17.039Z,23.10
2022-08-24T08:32:41.216Z,21.40
2022-08-24T08:35:05.818Z,20.95
2022-08-24T08:37:32.640Z,23.85
2022-08-24T08:39:56.676Z,24.33
2022-08-24T08:42:51.962Z,26.17
2022-08-24T08:45:36.589Z,24.67
2022-08-24T08:49:04.908Z,24.23
2022-08-24T08:52:13.669Z,23.10
2022-08-24T08:54:54.607Z,27.15
2022-08-24T08:57:35.448Z,27.23
2022-08-24T09:00:15.896Z,22.20
2022-08-24T09:03:34.352Z,20.58
2022-08-24T09:06:36.677Z,22.20
2022-08-24T09:09:27.682Z,20.30
2022-08-24T09:12:05.410Z,24.88
2022-08-24T09:14:53.249Z,23.92
2022-08-24T09:17:35.168Z,23.52
2022-08-24T09:20:21.007Z,22.55
2022-08-24T09:22:48.468Z,23.25
2022-08-24T09:25:26.387Z,22.20
2022-08-24T09:28:18.376Z,23.48
2022-08-24T09:31:03.822Z,24.33
2022-08-24T09:33:32.939Z,22.05
2022-08-24T09:36:10.874Z,25.73
2022-08-24T09:39:00.037Z,25.17
2022-08-24T09:42:24.536Z,18.35
2022-08-24T09:45:21.876Z,20.15
2022-08-24T09:48:17.854Z,18.33
2022-08-24T09:51:30.972Z,18.85
2022-08-24T09:54:36.855Z,20.23
2022-08-24T09:57:50.325Z,20.83
2022-08-24T10:00:19.887Z,13.82
2022-08-24T10:03:01.347Z,16.95
2022-08-24T10:05:41.360Z,18.75
2022-08-24T10:08:20.005Z,18.98
2022-08-24T10:10:53.033Z,21.15
2022-08-24T10:13:27.780Z,17.60
2022-08-24T10:16:22.708Z,16.58
2022-08-24T10:19:01.324Z,16.80
2022-08-24T10:21:42.351Z,19.13
2022-08-24T10:24:37.295Z,15.07
2022-08-24T10:27:21.627Z,16.45
2022-08-24T10:30:15.926Z,17.40
2022-08-24T10:33:04.895Z,18.55
2022-08-24T10:35:37.025Z,19.67
2022-08-24T10:38:46.924Z,19.45
2022-08-24T10:42:37.376Z,17.38
2022-08-24T10:45:28.785Z,18.00
2022-08-24T10:48:16.433Z,18.38
2022-08-24T10:50:55.381Z,22.25
2022-08-24T10:53:26.537Z,17.85
2022-08-24T10:56:05.587Z,16.33
2022-08-24T10:59:04.445Z,16.90
2022-08-24T11:01:33.771Z,14.13
2022-08-24T11:04:04.487Z,16.90
2022-08-24T11:06:32.745Z,13.35
2022-08-24T11:09:02.594Z,14.75
2022-08-24T11:11:32.979Z,15.30
2022-08-24T11:14:01.776Z,14.13
2022-08-24T11:16:30.483Z,14.70
2022-08-24T11:18:56.979Z,12.52
2022-08-24T11:21:48.514Z,15.77
2022-08-24T11:24:28.602Z,15.00
2022-08-24T11:26:58.556Z,17.13
2022-08-24T11:29:30.668Z,19.35
2022-08-24T11:31:54.820Z,13.95
2022-08-24T11:34:31.803Z,13.68
2022-08-24T11:36:55.577Z,12.98
2022-08-24T11:39:24.016Z,15.02
2022-08-24T11:41:57.755Z,13.32
2022-08-24T11:44:41.171Z,13.60
2022-08-24T11:47:19.718Z,11.90
2022-08-24T11:49:53.698Z,10.55
2022-08-24T11:52:34.990Z,14.95
2022-08-24T11:55:06.456Z,12.02
2022-08-24T11:57:39.612Z,13.45
2022-08-24T12:00:18.533Z,14.05
2022-08-24T12:02:51.911Z,13.13
2022-08-24T12:05:30.663Z,15.27
2022-08-24T12:08:09.850Z,13.18
2022-08-24T12:10:45.405Z,13.05
2022-08-24T12:13:23.762Z,12.75
2022-08-24T12:15:56.946Z,14.35
2022-08-24T12:18:30.217Z,14.20
2022-08-24T12:20:55.730Z,11.90
2022-08-24T12:23:28.654Z,12.95
2022-08-24T12:26:04.724Z,14.88
2022-08-24T12:28:35.644Z,12.52
2022-08-24T12:31:14.191Z,11.68
2022-08-24T12:33:41.280Z,11.70
2022-08-24T12:36:14.938Z,11.15
2022-08-24T12:38:45.135Z,11.30
2022-08-24T12:41:18.992Z,10.88
2022-08-24T12:43:49.388Z,13.07
2022-08-24T12:46:17.384Z,10.93
2022-08-24T12:48:48.903Z,12.05
2022-08-24T12:51:22.833Z,9.23
2022-08-24T12:54:02.781Z,13.07
2022-08-24T12:57:04.812Z,10.75
2022-08-24T12:59:32.101Z,11.10
2022-08-24T13:02:04.970Z,11.48
2022-08-24T13:04:55.313Z,11.95
2022-08-24T13:07:31.636Z,15.95
2022-08-24T13:10:13.722Z,11.48
2022-08-24T13:13:20.083Z,11.57
2022-08-24T13:16:03.397Z,8.77
2022-08-24T13:19:11.187Z,11.98
2022-08-24T13:21:58.710Z,13.70
2022-08-24T13:24:57.680Z,12.82
2022-08-24T13:28:03.966Z,15.05
2022-08-24T13:30:39.291Z,15.88
2022-08-24T13:33:11.666Z,22.33
2022-08-24T13:36:04.064Z,15.73
2022-08-24T13:38:55.360Z,14.68
2022-08-24T13:41:37.603Z,11.30
2022-08-24T13:44:08.753Z,8.40
2022-08-24T13:46:53.849Z,12.68
2022-08-24T13:49:40.916Z,10.25
2022-08-24T13:52:22.745Z,16.38
2022-08-24T13:55:11.197Z,18.55
2022-08-24T13:57:41.750Z,15.07
2022-08-24T14:00:33.933Z,13.20
2022-08-24T14:03:14.313Z,13.15
2022-08-24T14:05:48.644Z,12.05
2022-08-24T14:08:35.130Z,12.60
2022-08-24T14:11:09.784Z,16.13
2022-08-24T14:13:59.467Z,17.98
2022-08-24T14:16:57.111Z,14.43
2022-08-24T14:19:29.860Z,14.85
2022-08-24T14:22:01.453Z,12.65
2022-08-24T14:24:36.403Z,17.27
2022-08-24T14:27:13.459Z,14.48
2022-08-24T14:29:47.412Z,16.10
2022-08-24T14:33:03.504Z,16.33
2022-08-24T14:35:36.199Z,13.07
2022-08-24T14:38:55.942Z,15.30
2022-08-24T14:41:41.831Z,17.23
2022-08-24T14:44:36.980Z,15.48
2022-08-24T14:47:09.296Z,11.93
2022-08-24T14:49:41.929Z,9.00
2022-08-24T14:52:22.126Z,14.98
2022-08-24T14:55:05.843Z,10.98
2022-08-24T14:57:49.030Z,14.00
2022-08-24T15:00:17.438Z,13.90
2022-08-24T15:03:25.894Z,14.57
2022-08-24T15:06:26.346Z,19.25
2022-08-24T15:08:52.526Z,16.52
2022-08-24T15:11:19.343Z,11.55
2022-08-24T15:13:50.939Z,20.35
2022-08-24T15:16:18.875Z,14.85
2022-08-24T15:18:50.840Z,12.82
2022-08-24T15:21:30.379Z,11.32
2022-08-24T15:24:16.771Z,11.43
2022-08-24T15:26:56.753Z,13.23
2022-08-24T15:29:26.227Z,10.48
2022-08-24T15:32:00.702Z,10.95
2022-08-24T15:34:37.395Z,12.63
2022-08-24T15:37:01.928Z,11.98
2022-08-24T15:39:29.395Z,13.07
2022-08-24T15:41:53.168Z,15.52
2022-08-24T15:44:24.501Z,13.68
2022-08-24T15:46:51.479Z,11.00
2022-08-24T15:49:20.290Z,9.98
2022-08-24T15:51:53.330Z,12.82
2022-08-24T15:54:31.075Z,15.32
2022-08-24T15:56:59.639Z,12.57
2022-08-24T15:59:29.744Z,11.13
2022-08-24T16:02:28.732Z,10.63
2022-08-24T16:05:00.817Z,8.55
2022-08-24T16:07:29.315Z,10.30
2022-08-24T16:10:07.571Z,11.10
2022-08-24T16:12:32.714Z,9.38
2022-08-24T16:15:14.349Z,10.23
2022-08-24T16:17:42.575Z,14.45
2022-08-24T16:20:10.098Z,12.02
2022-08-24T16:22:39.470Z,10.13
2022-08-24T16:25:24.296Z,14.90
2022-08-24T16:28:01.736Z,11.52
2022-08-24T16:30:30.089Z,10.50
2022-08-24T16:32:57.500Z,10.60
2022-08-24T16:35:23.980Z,8.65
2022-08-24T16:37:47.646Z,7.70
2022-08-24T16:40:12.546Z,11.43
2022-08-24T16:42:37.850Z,12.32
2022-08-24T16:45:01.989Z,12.68
2022-08-24T16:47:29.412Z,10.57
2022-08-24T16:49:53.276Z,11.15
2022-08-24T16:52:17.668Z,16.10
2022-08-24T16:54:42.039Z,11.00
2022-08-24T16:57:14.071Z,14.68
2022-08-24T16:59:38.101Z,10.50
2022-08-24T17:02:02.163Z,9.98
2022-08-24T17:04:28.008Z,9.57
2022-08-24T17:06:54.551Z,11.70
2022-08-24T17:09:19.228Z,10.98
2022-08-24T17:11:43.005Z,15.15
2022-08-24T17:14:07.111Z,9.68
2022-08-24T17:16:31.009Z,16.13
2022-08-24T17:18:54.974Z,11.52
2022-08-24T17:21:20.415Z,13.52
2022-08-24T17:23:46.738Z,11.27
2022-08-24T17:26:20.722Z,12.73
2022-08-24T17:28:47.412Z,12.15
2022-08-24T17:31:11.619Z,14.90
2022-08-24T17:33:35.845Z,9.27
2022-08-24T17:36:00.252Z,10.68
2022-08-24T17:38:26.498Z,12.10
2022-08-24T17:40:51.751Z,11.00
2022-08-24T17:43:16.118Z,11.60
2022-08-24T17:45:39.925Z,9.95
2022-08-24T17:48:04.556Z,12.05
2022-08-24T17:50:28.614Z,12.98
2022-08-24T17:52:58.897Z,8.45
2022-08-24T17:55:25.518Z,7.60
2022-08-24T17:57:49.212Z,13.35
2022-08-24T18:00:15.608Z,13.35
2022-08-24T18:02:41.247Z,10.48
2022-08-24T18:05:08.465Z,10.50
2022-08-24T18:07:51.990Z,8.23
2022-08-24T18:10:22.143Z,8.68
2022-08-24T18:12:47.213Z,10.60
2022-08-24T18:15:11.803Z,8.35
2022-08-24T18:17:40.231Z,10.73
2022-08-24T18:20:05.111Z,13.18
2022-08-24T18:22:29.504Z,10.43
2022-08-24T18:24:53.131Z,9.95
2022-08-24T18:27:20.418Z,16.75
2022-08-24T18:29:54.818Z,11.82
2022-08-24T18:32:21.022Z,13.77
2022-08-24T18:34:44.856Z,9.63
2022-08-24T18:37:09.150Z,11.50
2022-08-24T18:39:32.819Z,14.57
2022-08-24T18:41:59.653Z,12.48
2022-08-24T18:44:29.559Z,13.68
2022-08-24T18:46:56.664Z,12.98
2022-08-24T18:49:22.369Z,16.23
2022-08-24T18:51:48.353Z,12.07
2022-08-24T18:54:16.405Z,15.13
2022-08-24T18:56:40.350Z,13.88
2022-08-24T18:59:04.722Z,15.13
2022-08-24T19:01:29.641Z,15.90
2022-08-24T19:03:55.663Z,12.27
2022-08-24T19:06:19.837Z,14.55
2022-08-24T19:08:43.486Z,16.63
2022-08-24T19:11:08.506Z,16.45
2022-08-24T19:13:33.275Z,19.77
2022-08-24T19:15:58.172Z,20.33
2022-08-24T19:18:23.978Z,17.92
2022-08-24T19:20:52.324Z,17.90
2022-08-24T19:23:21.283Z,18.05
2022-08-24T19:25:47.054Z,17.15
2022-08-24T19:28:11.565Z,19.45
2022-08-24T19:30:35.627Z,16.92
2022-08-24T19:33:00.221Z,18.45
2022-08-24T19:35:24.407Z,16.88
2022-08-24T19:37:49.579Z,18.08
2022-08-24T19:40:13.986Z,17.70
2022-08-24T19:42:37.781Z,19.17
2022-08-24T19:45:21.108Z,17.83
2022-08-24T19:47:44.889Z,18.30
2022-08-24T19:50:10.635Z,19.20
2022-08-24T19:52:35.528Z,20.08
2022-08-24T19:55:00.671Z,18.35
2022-08-24T19:57:37.948Z,17.35
2022-08-24T20:00:21.424Z,17.80
2022-08-24T20:02:45.662Z,18.90
2022-08-24T20:05:09.988Z,18.52
2022-08-24T20:07:33.713Z,21.90
2022-08-24T20:09:57.495Z,17.25
2022-08-24T20:12:24.306Z,15.43
2022-08-24T20:14:48.135Z,16.17
2022-08-24T20:17:11.883Z,16.10
2022-08-24T20:19:39.560Z,16.02
2022-08-24T20:22:13.175Z,15.65
2022-08-24T20:24:37.444Z,17.02
2022-08-24T20:27:01.365Z,16.75
2022-08-24T20:29:27.461Z,14.48
2022-08-24T20:31:52.547Z,15.90
2022-08-24T20:34:16.483Z,15.55
2022-08-24T20:36:44.911Z,17.58
2022-08-24T20:39:13.183Z,15.57
2022-08-24T20:41:37.302Z,14.23
2022-08-24T20:44:01.620Z,14.07
2022-08-24T20:46:27.507Z,14.52
2022-08-24T20:48:55.404Z,15.77
2022-08-24T20:51:19.567Z,14.07
2022-08-24T20:53:43.311Z,15.93
2022-08-24T20:56:12.670Z,14.35
2022-08-24T20:58:36.445Z,19.77
2022-08-24T21:01:00.092Z,14.90
2022-08-24T21:03:25.295Z,14.10
2022-08-24T21:05:52.427Z,16.98
2022-08-24T21:08:16.321Z,15.45
2022-08-24T21:10:42.242Z,16.30
2022-08-24T21:13:06.586Z,15.02
2022-08-24T21:15:30.344Z,17.98
2022-08-24T21:17:54.159Z,19.20
2022-08-24T21:20:20.352Z,16.00
2022-08-24T21:22:46.216Z,16.30
2022-08-24T21:25:11.563Z,19.85
2022-08-24T21:27:38.491Z,12.98
2022-08-24T21:30:02.416Z,13.85
2022-08-24T21:32:43.751Z,16.27
2022-08-24T21:35:08.946Z,15.65
2022-08-24T21:37:37.551Z,17.48
2022-08-24T21:40:01.277Z,15.30
2022-08-24T21:42:24.944Z,14.10
2022-08-24T21:44:49.134Z,16.63
2022-08-24T21:47:12.835Z,16.00
2022-08-24T21:49:36.796Z,16.98
2022-08-24T21:52:00.412Z,13.90
2022-08-24T21:54:26.405Z,15.95
2022-08-24T21:56:50.523Z,16.50
2022-08-24T21:59:14.623Z,17.95
2022-08-24T22:01:38.829Z,14.82
2022-08-24T22:04:02.715Z,16.80
2022-08-24T22:06:30.993Z,15.48
2022-08-24T22:08:55.109Z,15.10
2022-08-24T22:11:24.671Z,15.60
2022-08-24T22:13:49.011Z,13.80
2022-08-24T22:16:13.460Z,17.23
2022-08-24T22:18:37.290Z,15.98
2022-08-24T22:21:01.791Z,13.98
2022-08-24T22:23:25.503Z,12.95
2022-08-24T22:25:52.017Z,17.33
2022-08-24T22:28:17.168Z,20.02
2022-08-24T22:30:40.856Z,14.20
2022-08-24T22:33:05.182Z,15.52
2022-08-24T22:35:29.131Z,13.25
2022-08-24T22:37:58.188Z,17.45
2022-08-24T22:40:22.152Z,16.10
2022-08-24T22:42:45.905Z,19.75
2022-08-24T22:45:12.235Z,16.88
2022-08-24T22:47:36.063Z,19.30
2022-08-24T22:49:59.739Z,13.20
2022-08-24T22:52:23.534Z,15.05
2022-08-24T22:54:47.316Z,19.23
2022-08-24T22:57:11.310Z,18.73
2022-08-24T22:59:38.731Z,18.08
2022-08-24T23:02:06.618Z,14.52
2022-08-24T23:04:34.714Z,14.10
2022-08-24T23:06:58.395Z,14.43
2022-08-24T23:09:23.342Z,15.00
2022-08-24T23:11:47.506Z,16.60
2022-08-24T23:14:13.744Z,13.38
2022-08-24T23:16:41.113Z,15.40
2022-08-24T23:19:25.388Z,15.27
2022-08-24T23:21:49.238Z,14.63
2022-08-24T23:24:15.320Z,18.20
2022-08-24T23:26:40.291Z,13.95
2022-08-24T23:29:04.699Z,20.55
2022-08-24T23:31:29.038Z,19.15
2022-08-24T23:33:53.729Z,19.10
2022-08-24T23:36:23.597Z,12.55
2022-08-24T23:38:47.260Z,16.38
2022-08-24T23:41:13.931Z,17.27
2022-08-24T23:43:38.523Z,20.83
2022-08-24T23:46:02.347Z,14.38
2022-08-24T23:48:26.081Z,18.88
2022-08-24T23:50:49.904Z,14.10
2022-08-24T23:53:15.455Z,13.77
2022-08-24T23:55:39.222Z,14.95
2022-08-24T23:58:03.759Z,16.58
